createdAt,value
2022-10-29T00:01:18.586Z,99.90
2022-10-29T00:03:47.248Z,99.90
2022-10-29T00:06:14.833Z,99.90
2022-10-29T00:08:42.584Z,99.90
2022-10-29T00:11:18.912Z,99.90
2022-10-29T00:13:47.064Z,99.90
2022-10-29T00:16:19.453Z,99.90
2022-10-29T00:18:46.615Z,99.90
2022-10-29T00:21:16.688Z,99.90
2022-10-29T00:23:43.638Z,99.90
2022-10-29T00:26:10.801Z,99.90
2022-10-29T00:28:37.889Z,99.90
2022-10-29T00:31:06.131Z,99.90
2022-10-29T00:33:33.478Z,99.90
2022-10-29T00:36:06.332Z,99.90
2022-10-29T00:38:34.550Z,99.90
2022-10-29T00:41:02.244Z,99.90
2022-10-29T00:43:29.103Z,99.90
2022-10-29T00:45:58.777Z,99.90
2022-10-29T00:48:27.986Z,99.90
2022-10-29T00:50:55.973Z,99.90
2022-10-29T00:53:28.856Z,99.90
2022-10-29T00:55:55.813Z,99.90
2022-10-29T00:58:22.735Z,99.90
2022-10-29T01:00:49.427Z,99.90
2022-10-29T01:03:16.320Z,99.90
2022-10-29T01:05:45.152Z,99.90
2022-10-29T01:08:13.101Z,99.90
2022-10-29T01:11:07.375Z,99.90
2022-10-29T01:13:52.202Z,99.90
2022-10-29T01:16:35.176Z,99.90
2022-10-29T01:19:27.147Z,99.90
2022-10-29T01:22:16.990Z,99.90
2022-10-29T01:25:13.574Z,99.90
2022-10-29T01:27:59.196Z,99.90
2022-10-29T01:31:00.492Z,99.90
2022-10-29T01:33:54.281Z,99.90
2022-10-29T01:36:23.741Z,99.90
2022-10-29T01:39:08.669Z,99.90
2022-10-29T01:41:53.367Z,99.90
2022-10-29T01:44:34.467Z,99.90
2022-10-29T01:47:04.272Z,99.90
2022-10-29T01:49:43.372Z,99.90
2022-10-29T01:52:13.733Z,99.90
2022-10-29T01:54:45.703Z,99.90
2022-10-29T01:57:29.628Z,99.90
2022-10-29T02:00:12.823Z,99.90
2022-10-29T02:02:51.470Z,99.90
2022-10-29T02:05:31.915Z,99.90
2022-10-29T02:08:16.653Z,99.90
2022-10-29T02:11:04.984Z,99.90
2022-10-29T02:13:37.720Z,99.90
2022-10-29T02:16:06.848Z,99.90
2022-10-29T02:18:45.783Z,99.90
2022-10-29T02:21:17.245Z,99.90
2022-10-29T02:23:44.654Z,99.90
2022-10-29T02:26:11.810Z,99.90
2022-10-29T02:28:38.560Z,99.90
2022-10-29T02:31:05.808Z,99.90
2022-10-29T02:33:32.486Z,99.90
2022-10-29T02:35:59.258Z,99.90
2022-10-29T02:38:25.801Z,99.90
2022-10-29T02:40:52.691Z,99.90
2022-10-29T02:45:50.963Z,99.90
2022-10-29T02:48:17.570Z,99.90
2022-10-29T02:50:44.266Z,99.90
2022-10-29T02:53:10.905Z,99.90
2022-10-29T02:55:37.565Z,99.90
2022-10-29T02:58:04.289Z,99.90
2022-10-29T03:00:31.000Z,99.90
2022-10-29T03:02:58.190Z,99.90
2022-10-29T03:05:25.400Z,99.90
2022-10-29T03:07:51.962Z,99.90
2022-10-29T03:10:18.598Z,99.90
2022-10-29T03:12:45.227Z,99.90
2022-10-29T03:15:11.872Z,99.90
2022-10-29T03:17:38.495Z,99.90
2022-10-29T03:20:05.940Z,99.90
2022-10-29T03:22:32.619Z,99.90
2022-10-29T03:24:59.242Z,99.90
2022-10-29T03:27:26.075Z,99.90
2022-10-29T03:29:52.857Z,99.90
2022-10-29T03:32:20.051Z,99.90
2022-10-29T03:34:46.674Z,99.90
2022-10-29T03:37:13.319Z,99.90
2022-10-29T03:39:39.942Z,99.90
2022-10-29T03:42:06.687Z,99.90
2022-10-29T03:44:33.394Z,99.90
2022-10-29T03:46:59.970Z,99.90
2022-10-29T03:49:26.694Z,99.90
2022-10-29T03:51:53.329Z,99.90
2022-10-29T03:54:20.079Z,99.90
2022-10-29T03:56:46.710Z,99.90
2022-10-29T03:59:13.342Z,99.90
2022-10-29T04:01:40.168Z,99.90
2022-10-29T04:04:06.864Z,99.90
2022-10-29T04:06:33.591Z,99.90
2022-10-29T04:09:00.144Z,99.90
2022-10-29T04:11:26.816Z,99.90
2022-10-29T04:13:53.976Z,99.90
2022-10-29T04:16:20.817Z,99.90
2022-10-29T04:18:47.971Z,99.90
2022-10-29T04:29:35.583Z,99.90
2022-10-29T04:32:02.301Z,99.90
2022-10-29T04:34:28.956Z,99.90
2022-10-29T04:36:55.652Z,99.90
2022-10-29T04:39:23.602Z,99.90
2022-10-29T04:41:50.416Z,99.90
2022-10-29T04:44:17.118Z,99.90
2022-10-29T04:46:43.746Z,99.90
2022-10-29T04:49:10.605Z,99.90
2022-10-29T04:51:37.764Z,99.90
2022-10-29T04:54:04.688Z,99.90
2022-10-29T04:56:31.459Z,99.90
2022-10-29T04:58:58.055Z,99.90
2022-10-29T05:01:25.045Z,99.90
2022-10-29T05:03:55.528Z,99.90
2022-10-29T05:06:25.680Z,99.90
2022-10-29T05:08:52.318Z,99.90
2022-10-29T05:11:18.984Z,99.90
2022-10-29T05:13:45.658Z,99.90
2022-10-29T05:16:12.402Z,99.90
2022-10-29T05:18:39.593Z,99.90
2022-10-29T05:21:06.848Z,99.90
2022-10-29T05:23:33.587Z,99.90
2022-10-29T05:26:00.270Z,99.90
2022-10-29T05:28:26.975Z,99.90
2022-10-29T05:30:54.082Z,99.90
2022-10-29T05:33:23.915Z,99.90
2022-10-29T05:35:51.318Z,99.90
2022-10-29T05:38:18.073Z,99.90
2022-10-29T05:40:45.555Z,99.90
2022-10-29T05:43:16.419Z,99.90
2022-10-29T05:45:43.988Z,99.90
2022-10-29T05:50:43.644Z,99.90
2022-10-29T05:53:12.457Z,99.90
2022-10-29T05:55:39.856Z,99.90
2022-10-29T05:58:10.089Z,99.90
2022-10-29T06:00:39.230Z,99.90
2022-10-29T06:03:14.880Z,99.90
2022-10-29T06:05:41.648Z,99.90
2022-10-29T06:08:08.816Z,99.90
2022-10-29T06:10:35.993Z,99.90
2022-10-29T06:13:02.797Z,99.90
2022-10-29T06:15:29.375Z,99.90
2022-10-29T06:17:56.455Z,99.90
2022-10-29T06:20:23.368Z,99.90
2022-10-29T06:22:58.088Z,99.90
2022-10-29T06:25:26.444Z,99.90
2022-10-29T06:28:04.476Z,99.90
2022-10-29T06:30:33.465Z,99.90
2022-10-29T06:33:01.070Z,99.90
2022-10-29T06:35:28.073Z,99.90
2022-10-29T06:37:55.332Z,99.90
2022-10-29T06:40:22.685Z,99.90
2022-10-29T06:42:49.448Z,99.90
2022-10-29T06:45:16.078Z,99.90
2022-10-29T06:47:44.375Z,99.90
2022-10-29T06:50:13.421Z,99.90
2022-10-29T06:52:40.083Z,99.90
2022-10-29T06:55:08.280Z,99.90
2022-10-29T06:57:35.006Z,99.90
2022-10-29T07:00:05.652Z,99.90
2022-10-29T07:02:35.337Z,99.90
2022-10-29T07:05:01.982Z,99.90
2022-10-29T07:07:29.405Z,99.90
2022-10-29T07:09:56.246Z,99.90
2022-10-29T07:12:22.952Z,99.90
2022-10-29T07:14:49.626Z,99.90
2022-10-29T07:17:16.379Z,99.90
2022-10-29T07:19:43.020Z,99.90
2022-10-29T07:22:09.637Z,99.90
2022-10-29T07:24:36.387Z,99.90
2022-10-29T07:27:03.093Z,99.90
2022-10-29T07:29:29.789Z,99.90
2022-10-29T07:31:56.583Z,99.90
2022-10-29T07:34:23.270Z,99.90
2022-10-29T07:36:49.888Z,99.90
2022-10-29T07:39:17.165Z,99.90
2022-10-29T07:41:43.909Z,99.90
2022-10-29T07:44:11.070Z,99.90
2022-10-29T07:46:37.782Z,99.90
2022-10-29T07:49:04.401Z,99.90
2022-10-29T07:51:31.127Z,99.90
2022-10-29T07:53:58.002Z,99.90
2022-10-29T07:56:24.699Z,99.90
2022-10-29T07:58:51.264Z,99.90
2022-10-29T08:01:18.107Z,99.90
2022-10-29T08:03:44.945Z,98.40
2022-10-29T08:06:11.773Z,90.50
2022-10-29T08:08:38.455Z,82.80
2022-10-29T08:11:05.144Z,82.70
2022-10-29T08:13:31.855Z,74.50
2022-10-29T08:15:58.696Z,69.50
2022-10-29T08:18:25.356Z,70.50
2022-10-29T08:20:51.959Z,70.90
2022-10-29T08:23:18.829Z,72.90
2022-10-29T08:25:45.517Z,68.10
2022-10-29T08:28:14.560Z,68.90
2022-10-29T08:30:43.834Z,62.00
2022-10-29T08:33:11.066Z,63.90
2022-10-29T08:35:37.817Z,62.00
2022-10-29T08:38:04.540Z,62.90
2022-10-29T08:40:49.827Z,58.40
2022-10-29T08:43:53.519Z,58.40
2022-10-29T08:46:43.159Z,57.20
2022-10-29T08:49:25.313Z,59.60
2022-10-29T08:52:11.777Z,60.70
2022-10-29T08:54:42.274Z,58.40
2022-10-29T08:57:15.481Z,60.20
2022-10-29T09:00:04.581Z,60.20
2022-10-29T09:02:31.325Z,57.20
2022-10-29T09:04:59.359Z,57.10
2022-10-29T09:07:49.222Z,58.50
2022-10-29T09:10:37.286Z,59.00
2022-10-29T09:13:29.100Z,57.90
2022-10-29T09:16:17.742Z,57.90
2022-10-29T09:18:54.478Z,57.80
2022-10-29T09:21:45.749Z,58.20
2022-10-29T09:24:35.240Z,56.80
2022-10-29T09:27:29.364Z,55.00
2022-10-29T09:30:15.735Z,55.80
2022-10-29T09:33:01.411Z,56.80
2022-10-29T09:35:53.416Z,58.90
2022-10-29T09:38:44.124Z,57.20
2022-10-29T09:41:12.357Z,56.90
2022-10-29T09:44:04.406Z,56.80
2022-10-29T09:46:46.147Z,53.70
2022-10-29T09:49:39.250Z,50.60
2022-10-29T09:52:21.693Z,50.60
2022-10-29T09:54:50.874Z,50.50
2022-10-29T09:57:21.442Z,51.30
2022-10-29T10:00:00.961Z,53.00
2022-10-29T10:02:30.668Z,51.70
2022-10-29T10:05:33.679Z,52.30
2022-10-29T10:08:14.545Z,51.20
2022-10-29T10:10:55.614Z,50.80
2022-10-29T10:13:31.085Z,51.30
2022-10-29T10:16:00.730Z,51.10
2022-10-29T10:18:38.148Z,49.80
2022-10-29T10:21:12.117Z,50.10
2022-10-29T10:23:54.561Z,48.00
2022-10-29T10:26:42.890Z,48.00
2022-10-29T10:29:14.474Z,47.90
2022-10-29T10:31:49.453Z,47.40
2022-10-29T10:34:20.445Z,46.20
2022-10-29T10:37:02.540Z,44.90
2022-10-29T10:39:40.876Z,44.90
2022-10-29T10:42:22.780Z,45.10
2022-10-29T10:44:52.985Z,44.20
2022-10-29T10:47:23.035Z,44.30
2022-10-29T10:49:49.855Z,45.50
2022-10-29T10:52:19.626Z,44.30
2022-10-29T10:55:01.346Z,43.70
2022-10-29T10:57:53.954Z,43.80
2022-10-29T11:00:22.395Z,45.00
2022-10-29T11:03:03.855Z,45.60
2022-10-29T11:05:38.198Z,44.20
2022-10-29T11:08:09.597Z,44.60
2022-10-29T11:10:53.425Z,45.00
2022-10-29T11:13:26.857Z,45.50
2022-10-29T11:16:17.883Z,46.00
2022-10-29T11:19:04.200Z,46.50
2022-10-29T11:21:39.359Z,45.30
2022-10-29T11:24:11.054Z,45.90
2022-10-29T11:26:41.087Z,45.60
2022-10-29T11:29:22.917Z,44.80
2022-10-29T11:32:00.375Z,45.60
2022-10-29T11:34:51.328Z,45.90
2022-10-29T11:37:49.979Z,46.80
2022-10-29T11:40:27.023Z,46.70
2022-10-29T11:42:54.404Z,47.60
2022-10-29T11:45:34.430Z,46.90
2022-10-29T11:48:07.164Z,47.40
2022-10-29T11:51:04.538Z,46.90
2022-10-29T11:53:40.336Z,47.30
2022-10-29T11:56:33.122Z,48.40
2022-10-29T11:59:22.044Z,48.80
2022-10-29T12:02:13.981Z,49.70
2022-10-29T12:05:13.910Z,49.40
2022-10-29T12:08:08.973Z,50.00
2022-10-29T12:10:50.462Z,50.30
2022-10-29T12:13:41.858Z,50.70
2022-10-29T12:16:17.626Z,51.20
2022-10-29T12:19:02.063Z,51.40
2022-10-29T12:22:02.702Z,52.30
2022-10-29T12:24:48.555Z,53.50
2022-10-29T12:27:45.632Z,54.50
2022-10-29T12:30:15.888Z,55.10
2022-10-29T12:33:06.584Z,55.60
2022-10-29T12:35:40.805Z,55.70
2022-10-29T12:38:42.666Z,56.10
2022-10-29T12:41:20.888Z,57.50
2022-10-29T12:43:48.337Z,57.20
2022-10-29T12:46:35.701Z,57.90
2022-10-29T12:49:13.737Z,58.80
2022-10-29T12:51:43.598Z,58.50
2022-10-29T12:54:29.193Z,58.60
2022-10-29T12:57:02.666Z,59.50
2022-10-29T12:59:35.610Z,59.80
2022-10-29T13:02:27.203Z,59.50
2022-10-29T13:05:06.623Z,59.50
2022-10-29T13:07:34.099Z,59.20
2022-10-29T13:10:22.932Z,59.00
2022-10-29T13:13:13.827Z,59.70
2022-10-29T13:15:44.469Z,59.10
2022-10-29T13:18:41.743Z,59.00
2022-10-29T13:21:09.047Z,58.70
2022-10-29T13:23:37.573Z,59.10
2022-10-29T13:26:06.244Z,60.20
2022-10-29T13:28:35.880Z,60.60
2022-10-29T13:31:08.008Z,60.40
2022-10-29T13:33:37.509Z,61.40
2022-10-29T13:36:16.394Z,61.20
2022-10-29T13:38:57.902Z,60.20
2022-10-29T13:41:42.857Z,61.90
2022-10-29T13:44:25.998Z,59.80
2022-10-29T13:47:17.745Z,61.60
2022-10-29T13:49:46.406Z,61.80
2022-10-29T13:52:18.347Z,61.00
2022-10-29T13:55:02.920Z,60.70
2022-10-29T13:57:35.710Z,61.50
2022-10-29T14:00:18.707Z,61.90
2022-10-29T14:02:52.942Z,62.80
2022-10-29T14:05:38.297Z,64.00
2022-10-29T14:08:24.130Z,64.70
2022-10-29T14:10:54.776Z,65.50
2022-10-29T14:13:33.897Z,65.70
2022-10-29T14:16:03.455Z,67.10
2022-10-29T14:18:38.706Z,70.90
2022-10-29T14:21:21.829Z,71.60
2022-10-29T14:24:09.947Z,73.90
2022-10-29T14:26:39.029Z,78.10
2022-10-29T14:29:18.390Z,82.80
2022-10-29T14:31:45.884Z,86.00
2022-10-29T14:34:25.966Z,89.50
2022-10-29T14:36:58.377Z,91.60
2022-10-29T14:39:57.079Z,93.20
2022-10-29T14:42:32.380Z,95.70
2022-10-29T14:45:21.613Z,98.70
2022-10-29T14:48:09.424Z,99.90
2022-10-29T14:50:36.725Z,99.90
2022-10-29T14:53:20.454Z,99.90
2022-10-29T14:55:49.306Z,99.90
2022-10-29T14:58:17.836Z,99.90
2022-10-29T15:00:56.439Z,99.90
2022-10-29T15:03:25.697Z,99.90
2022-10-29T15:06:09.974Z,99.90
2022-10-29T15:08:40.165Z,99.90
2022-10-29T15:11:34.442Z,99.90
2022-10-29T15:14:23.952Z,99.90
2022-10-29T15:16:52.537Z,99.90
2022-10-29T15:19:19.495Z,99.90
2022-10-29T15:21:46.298Z,99.90
2022-10-29T15:24:20.480Z,99.90
2022-10-29T15:26:58.879Z,99.90
2022-10-29T15:29:34.850Z,99.90
2022-10-29T15:32:04.036Z,99.90
2022-10-29T15:34:37.288Z,99.90
2022-10-29T15:37:19.185Z,99.90
2022-10-29T15:40:02.650Z,99.90
2022-10-29T15:42:35.307Z,99.90
2022-10-29T15:45:08.318Z,99.90
2022-10-29T15:47:40.648Z,99.90
2022-10-29T15:50:11.654Z,99.90
2022-10-29T15:52:42.072Z,99.90
2022-10-29T15:55:14.618Z,99.90
2022-10-29T15:57:41.854Z,99.90
2022-10-29T16:00:11.220Z,99.90
2022-10-29T16:02:37.926Z,99.90
2022-10-29T16:05:05.112Z,99.90
2022-10-29T16:07:32.611Z,99.90
2022-10-29T16:09:59.928Z,99.90
2022-10-29T16:12:26.607Z,99.90
2022-10-29T16:14:53.229Z,99.90
2022-10-29T16:17:20.916Z,99.90
2022-10-29T16:19:47.682Z,99.90
2022-10-29T16:22:16.342Z,99.90
2022-10-29T16:24:43.130Z,99.90
2022-10-29T16:27:18.302Z,99.90
2022-10-29T16:29:49.805Z,99.90
2022-10-29T16:32:18.369Z,99.90
2022-10-29T16:34:45.132Z,99.90
2022-10-29T16:37:13.652Z,99.90
2022-10-29T16:39:40.968Z,99.90
2022-10-29T16:42:10.374Z,99.90
2022-10-29T16:44:37.057Z,99.90
2022-10-29T16:47:03.637Z,99.90
2022-10-29T16:49:30.268Z,99.90
2022-10-29T16:51:56.851Z,99.90
2022-10-29T16:54:23.508Z,99.90
2022-10-29T16:56:52.614Z,99.90
2022-10-29T16:59:19.361Z,99.90
2022-10-29T17:01:47.764Z,99.90
2022-10-29T17:04:14.489Z,99.90
2022-10-29T17:06:41.223Z,99.90
2022-10-29T17:09:07.865Z,99.90
2022-10-29T17:11:34.552Z,99.90
2022-10-29T17:14:01.262Z,99.90
2022-10-29T17:16:27.896Z,99.90
2022-10-29T17:18:54.799Z,99.90
2022-10-29T17:21:21.469Z,99.90
2022-10-29T17:23:49.256Z,99.90
2022-10-29T17:26:16.166Z,99.90
2022-10-29T17:28:43.008Z,99.90
2022-10-29T17:31:11.279Z,99.90
2022-10-29T17:33:38.103Z,99.90
2022-10-29T17:36:10.777Z,99.90
2022-10-29T17:38:37.441Z,99.90
2022-10-29T17:41:04.124Z,99.90
2022-10-29T17:43:30.933Z,99.90
2022-10-29T17:45:57.655Z,99.90
2022-10-29T17:48:25.158Z,99.90
2022-10-29T17:50:56.794Z,99.90
2022-10-29T17:53:24.410Z,99.90
2022-10-29T17:55:51.457Z,99.90
2022-10-29T17:58:19.511Z,99.90
2022-10-29T18:00:48.399Z,99.90
2022-10-29T18:03:15.308Z,99.90
2022-10-29T18:05:41.864Z,99.90
2022-10-29T18:08:08.643Z,99.90
2022-10-29T18:10:35.748Z,99.90
2022-10-29T18:13:02.492Z,99.90
2022-10-29T18:15:29.163Z,99.90
2022-10-29T18:17:58.166Z,99.90
2022-10-29T18:20:24.835Z,99.90
2022-10-29T18:22:55.547Z,99.90
2022-10-29T18:25:22.781Z,99.90
2022-10-29T18:27:55.298Z,99.90
2022-10-29T18:30:25.135Z,99.90
2022-10-29T18:32:52.010Z,99.90
2022-10-29T18:35:18.765Z,99.90
2022-10-29T18:37:45.949Z,99.90
2022-10-29T18:40:13.030Z,99.90
2022-10-29T18:42:39.750Z,99.90
2022-10-29T18:45:06.656Z,99.90
2022-10-29T18:47:33.282Z,99.90
2022-10-29T18:49:59.964Z,99.90
2022-10-29T18:52:26.597Z,99.90
2022-10-29T18:54:53.281Z,99.90
2022-10-29T18:57:19.955Z,99.90
2022-10-29T18:59:46.590Z,99.90
2022-10-29T19:02:13.394Z,99.90
2022-10-29T19:04:40.226Z,99.90
2022-10-29T19:07:06.853Z,99.90
2022-10-29T19:09:33.823Z,99.90
2022-10-29T19:12:00.456Z,99.90
2022-10-29T19:14:27.107Z,99.90
2022-10-29T19:16:53.765Z,99.90
2022-10-29T19:19:22.934Z,99.90
2022-10-29T19:21:50.889Z,99.90
2022-10-29T19:24:17.664Z,99.90
2022-10-29T19:26:44.417Z,99.90
2022-10-29T19:29:11.318Z,99.90
2022-10-29T19:31:38.537Z,99.90
2022-10-29T19:34:07.004Z,99.90
2022-10-29T19:36:35.800Z,99.90
2022-10-29T19:39:03.890Z,99.90
2022-10-29T19:41:31.132Z,99.90
2022-10-29T19:44:02.009Z,99.90
2022-10-29T19:46:28.816Z,99.90
2022-10-29T19:48:56.201Z,99.90
2022-10-29T19:51:23.307Z,99.90
2022-10-29T19:53:53.487Z,99.90
2022-10-29T19:56:21.321Z,99.90
2022-10-29T19:58:48.159Z,99.90
2022-10-29T20:01:18.983Z,99.90
2022-10-29T20:03:46.832Z,99.90
2022-10-29T20:06:14.439Z,99.90
2022-10-29T20:08:41.210Z,99.90
2022-10-29T20:11:08.160Z,99.90
2022-10-29T20:13:35.218Z,99.90
2022-10-29T20:16:12.079Z,99.90
2022-10-29T20:18:38.859Z,99.90
2022-10-29T20:23:37.953Z,99.90
2022-10-29T20:26:05.403Z,99.90
2022-10-29T20:28:32.159Z,99.90
2022-10-29T20:31:14.319Z,99.90
2022-10-29T20:33:41.008Z,99.90
2022-10-29T20:36:07.952Z,99.90
2022-10-29T20:38:35.012Z,99.90
2022-10-29T20:41:01.685Z,99.90
2022-10-29T20:43:28.461Z,99.90
2022-10-29T20:45:58.823Z,99.90
2022-10-29T20:48:25.504Z,99.90
2022-10-29T20:50:52.572Z,99.90
2022-10-29T20:53:19.298Z,99.90
2022-10-29T20:55:50.578Z,99.90
2022-10-29T20:58:21.237Z,99.90
2022-10-29T21:00:48.675Z,99.90
2022-10-29T21:03:16.947Z,99.90
2022-10-29T21:05:44.696Z,99.90
2022-10-29T21:08:11.433Z,99.90
2022-10-29T21:10:38.134Z,99.90
2022-10-29T21:13:05.037Z,99.90
2022-10-29T21:15:35.697Z,99.90
2022-10-29T21:18:02.433Z,99.90
2022-10-29T21:20:29.146Z,99.90
2022-10-29T21:22:55.966Z,99.90
2022-10-29T21:25:22.765Z,99.90
2022-10-29T21:27:53.880Z,99.90
2022-10-29T21:30:20.768Z,99.90
2022-10-29T21:32:47.389Z,99.90
2022-10-29T21:35:14.185Z,99.90
2022-10-29T21:37:40.861Z,99.90
2022-10-29T21:40:08.282Z,99.90
2022-10-29T21:42:34.969Z,99.90
2022-10-29T21:45:01.633Z,99.90
2022-10-29T21:47:28.253Z,99.90
2022-10-29T21:49:55.017Z,99.90
2022-10-29T21:52:21.616Z,99.90
2022-10-29T21:54:48.267Z,99.90
2022-10-29T21:57:14.907Z,99.90
2022-10-29T21:59:41.568Z,99.90
2022-10-29T22:02:08.281Z,99.90
2022-10-29T22:04:35.091Z,99.90
2022-10-29T22:07:03.372Z,99.90
2022-10-29T22:09:30.029Z,99.90
2022-10-29T22:11:56.721Z,99.90
2022-10-29T22:14:23.340Z,99.90
2022-10-29T22:16:50.123Z,99.90
2022-10-29T22:19:16.797Z,99.90
2022-10-29T22:21:45.084Z,99.90
2022-10-29T22:24:11.782Z,99.90
2022-10-29T22:26:38.640Z,99.90
2022-10-29T22:29:05.297Z,99.90
2022-10-29T22:31:31.997Z,99.90
2022-10-29T22:33:58.705Z,99.90
2022-10-29T22:36:26.075Z,99.90
2022-10-29T22:38:56.619Z,99.90
2022-10-29T22:41:25.650Z,99.90
2022-10-29T22:43:52.356Z,99.90
2022-10-29T22:46:19.576Z,99.90
2022-10-29T22:48:46.576Z,99.90
2022-10-29T22:51:19.243Z,99.90
2022-10-29T22:53:47.363Z,99.90
2022-10-29T22:56:22.063Z,99.90
2022-10-29T22:58:49.066Z,99.90
2022-10-29T23:01:21.892Z,99.90
2022-10-29T23:03:49.393Z,99.90
2022-10-29T23:06:18.504Z,99.90
2022-10-29T23:08:45.842Z,99.90
2022-10-29T23:11:21.347Z,99.90
2022-10-29T23:13:49.606Z,99.90
2022-10-29T23:16:16.400Z,99.90
2022-10-29T23:18:43.496Z,99.90
2022-10-29T23:21:10.182Z,99.90
2022-10-29T23:23:36.826Z,99.90
2022-10-29T23:26:04.178Z,99.90
2022-10-29T23:28:35.398Z,99.90
2022-10-29T23:31:04.466Z,99.90
2022-10-29T23:33:32.362Z,99.90
2022-10-29T23:36:03.196Z,99.90
2022-10-29T23:38:30.861Z,99.90
2022-10-29T23:40:57.621Z,99.90
2022-10-29T23:43:24.227Z,99.90
2022-10-29T23:45:50.900Z,99.90
2022-10-29T23:48:18.233Z,99.90
2022-10-29T23:50:45.492Z,99.90
2022-10-29T23:53:12.680Z,99.90
2022-10-29T23:55:39.503Z,99.90
2022-10-29T23:58:06.148Z,99.90
